AVA8250 SLLP-SPZO
Flight info
| Callsign | AVA8250 |
|---|---|
| Flight time | 0h 53m |
| Altitude | 36000 |
| Route | ELAKO UM657 JUL UV11 ILMOX |
| Aircraft | A319/M-SDE3FGHIRWY/LB1 |
Departure
| Time | 2026-05-08 05:55 |
|---|---|
| Airport | El Alto International Airport (SLLP) |
Arrival
| Time | 2026-05-08 06:48 |
|---|---|
| Airport | Alejandro Velasco Astete International Airport (SPZO) |
| Time | Latitude | Longitude | Altitude | Speed | Heading |
|---|---|---|---|---|---|
| 2026-05-08 05:43 | -16.50967 | -68.17687 | 13336 ft | 0 kts | 27° |
| 2026-05-08 05:47 | -16.50975 | -68.17691 | 13336 ft | 4 kts | 29° |
| 2026-05-08 05:47 | -16.50996 | -68.17707 | 13334 ft | 4 kts | 50° |
| 2026-05-08 05:47 | -16.51007 | -68.17728 | 13334 ft | 4 kts | 105° |
| 2026-05-08 05:48 | -16.51005 | -68.17735 | 13334 ft | 0 kts | 119° |
| 2026-05-08 05:50 | -16.51007 | -68.17731 | 13334 ft | 2 kts | 119° |
| 2026-05-08 05:50 | -16.51016 | -68.17714 | 13335 ft | 4 kts | 119° |
| 2026-05-08 05:51 | -16.51035 | -68.17679 | 13336 ft | 7 kts | 120° |
| 2026-05-08 05:51 | -16.51064 | -68.17629 | 13334 ft | 10 kts | 125° |
| 2026-05-08 05:51 | -16.51120 | -68.17561 | 13332 ft | 15 kts | 131° |
| 2026-05-08 05:51 | -16.51195 | -68.17469 | 13330 ft | 19 kts | 130° |
| 2026-05-08 05:52 | -16.51265 | -68.17386 | 13327 ft | 11 kts | 138° |
| 2026-05-08 05:52 | -16.51288 | -68.17372 | 13328 ft | 0 kts | 156° |
| 2026-05-08 05:52 | -16.51292 | -68.17371 | 13327 ft | 3 kts | 156° |
| 2026-05-08 05:53 | -16.51322 | -68.17363 | 13325 ft | 5 kts | 175° |
| 2026-05-08 05:53 | -16.51363 | -68.17363 | 13326 ft | 7 kts | 180° |
| 2026-05-08 05:53 | -16.51390 | -68.17384 | 13327 ft | 5 kts | 253° |
| 2026-05-08 05:53 | -16.51390 | -68.17410 | 13325 ft | 0 kts | 271° |
| 2026-05-08 05:54 | -16.51389 | -68.17471 | 13324 ft | 31 kts | 271° |
| 2026-05-08 05:54 | -16.51374 | -68.17924 | 13317 ft | 92 kts | 272° |
| 2026-05-08 05:54 | -16.51348 | -68.18777 | 13292 ft | 142 kts | 272° |
| 2026-05-08 05:55 | -16.51310 | -68.19962 | 13233 ft | 186 kts | 272° |
| 2026-05-08 05:55 | -16.51274 | -68.21341 | 13709 ft | 190 kts | 271° |
| 2026-05-08 05:55 | -16.51197 | -68.22718 | 14360 ft | 192 kts | 279° |
| 2026-05-08 05:55 | -16.50704 | -68.24057 | 14668 ft | 210 kts | 301° |
| 2026-05-08 05:56 | -16.49778 | -68.25340 | 14800 ft | 233 kts | 306° |
| 2026-05-08 05:56 | -16.48741 | -68.26758 | 14926 ft | 258 kts | 305° |
| 2026-05-08 05:56 | -16.47606 | -68.28317 | 15150 ft | 282 kts | 305° |
| 2026-05-08 05:56 | -16.46374 | -68.30018 | 15323 ft | 306 kts | 305° |
| 2026-05-08 05:57 | -16.45048 | -68.31860 | 15461 ft | 329 kts | 305° |
| 2026-05-08 05:57 | -16.43625 | -68.33836 | 15549 ft | 352 kts | 306° |
| 2026-05-08 05:57 | -16.42110 | -68.35941 | 15622 ft | 373 kts | 306° |
| 2026-05-08 05:57 | -16.40508 | -68.38156 | 15679 ft | 392 kts | 306° |
| 2026-05-08 05:58 | -16.38833 | -68.40469 | 15755 ft | 409 kts | 306° |
| 2026-05-08 05:58 | -16.37095 | -68.42871 | 15945 ft | 420 kts | 306° |
| 2026-05-08 05:58 | -16.35328 | -68.45314 | 16217 ft | 424 kts | 306° |
| 2026-05-08 05:58 | -16.33547 | -68.47781 | 16692 ft | 427 kts | 306° |
| 2026-05-08 05:59 | -16.31756 | -68.50258 | 17159 ft | 430 kts | 306° |
| 2026-05-08 05:59 | -16.29952 | -68.52749 | 17638 ft | 432 kts | 306° |
| 2026-05-08 05:59 | -16.28139 | -68.55252 | 18098 ft | 434 kts | 306° |
| 2026-05-08 05:59 | -16.26318 | -68.57767 | 18529 ft | 436 kts | 306° |
| 2026-05-08 06:00 | -16.24490 | -68.60290 | 18871 ft | 438 kts | 306° |
| 2026-05-08 06:00 | -16.22644 | -68.62832 | 19229 ft | 440 kts | 306° |
| 2026-05-08 06:00 | -16.20793 | -68.65379 | 19589 ft | 442 kts | 305° |
| 2026-05-08 06:00 | -16.18935 | -68.67938 | 19956 ft | 444 kts | 305° |
| 2026-05-08 06:01 | -16.17074 | -68.70504 | 20337 ft | 446 kts | 305° |
| 2026-05-08 06:01 | -16.15205 | -68.73083 | 20685 ft | 447 kts | 305° |
| 2026-05-08 06:01 | -16.13329 | -68.75672 | 21043 ft | 449 kts | 305° |
| 2026-05-08 06:01 | -16.11444 | -68.78269 | 21394 ft | 450 kts | 305° |
| 2026-05-08 06:02 | -16.09552 | -68.80872 | 21739 ft | 452 kts | 305° |
| 2026-05-08 06:02 | -16.07655 | -68.83481 | 22064 ft | 454 kts | 305° |
| 2026-05-08 06:02 | -16.05746 | -68.86103 | 22389 ft | 455 kts | 305° |
| 2026-05-08 06:02 | -16.03829 | -68.88730 | 22688 ft | 457 kts | 305° |
| 2026-05-08 06:03 | -16.01908 | -68.91362 | 22979 ft | 458 kts | 305° |
| 2026-05-08 06:03 | -15.99982 | -68.94009 | 23275 ft | 460 kts | 304° |
| 2026-05-08 06:03 | -15.98069 | -68.96634 | 23541 ft | 461 kts | 304° |
| 2026-05-08 06:03 | -15.96273 | -68.99444 | 23727 ft | 461 kts | 294° |
| 2026-05-08 06:04 | -15.95201 | -69.02573 | 23920 ft | 461 kts | 283° |
| 2026-05-08 06:04 | -15.94604 | -69.05792 | 24135 ft | 461 kts | 276° |
| 2026-05-08 06:04 | -15.94331 | -69.09108 | 24362 ft | 462 kts | 272° |
| 2026-05-08 06:04 | -15.94214 | -69.12496 | 24590 ft | 463 kts | 271° |
| 2026-05-08 06:05 | -15.94108 | -69.15794 | 24813 ft | 464 kts | 272° |
| 2026-05-08 06:05 | -15.93927 | -69.19144 | 25034 ft | 465 kts | 273° |
| 2026-05-08 06:05 | -15.93648 | -69.22500 | 25271 ft | 466 kts | 275° |
| 2026-05-08 06:05 | -15.93293 | -69.25855 | 25513 ft | 467 kts | 276° |
| 2026-05-08 06:06 | -15.92693 | -69.29177 | 25734 ft | 470 kts | 285° |
| 2026-05-08 06:06 | -15.91552 | -69.32364 | 25950 ft | 472 kts | 294° |
| 2026-05-08 06:06 | -15.89993 | -69.35374 | 26164 ft | 475 kts | 298° |
| 2026-05-08 06:06 | -15.88370 | -69.38359 | 26381 ft | 476 kts | 298° |
| 2026-05-08 06:07 | -15.86761 | -69.41365 | 26621 ft | 476 kts | 297° |
| 2026-05-08 06:07 | -15.85162 | -69.44369 | 26950 ft | 474 kts | 297° |
| 2026-05-08 06:07 | -15.83563 | -69.47361 | 27296 ft | 473 kts | 298° |
| 2026-05-08 06:07 | -15.81962 | -69.50340 | 27652 ft | 472 kts | 298° |
| 2026-05-08 06:08 | -15.80359 | -69.53308 | 28025 ft | 470 kts | 298° |
| 2026-05-08 06:08 | -15.78755 | -69.56263 | 28397 ft | 469 kts | 298° |
| 2026-05-08 06:08 | -15.77152 | -69.59211 | 28772 ft | 468 kts | 298° |
| 2026-05-08 06:08 | -15.75556 | -69.62151 | 29156 ft | 467 kts | 298° |
| 2026-05-08 06:09 | -15.73965 | -69.65084 | 29562 ft | 466 kts | 298° |
| 2026-05-08 06:09 | -15.72380 | -69.68012 | 30011 ft | 464 kts | 298° |
| 2026-05-08 06:09 | -15.70803 | -69.70930 | 30388 ft | 463 kts | 298° |
| 2026-05-08 06:09 | -15.69230 | -69.73837 | 30739 ft | 462 kts | 298° |
| 2026-05-08 06:10 | -15.67660 | -69.76737 | 31105 ft | 460 kts | 298° |
| 2026-05-08 06:10 | -15.66090 | -69.79630 | 31502 ft | 458 kts | 298° |
| 2026-05-08 06:10 | -15.64532 | -69.82504 | 31931 ft | 456 kts | 298° |
| 2026-05-08 06:10 | -15.62979 | -69.85367 | 32364 ft | 454 kts | 298° |
| 2026-05-08 06:11 | -15.61433 | -69.88212 | 32805 ft | 452 kts | 298° |
| 2026-05-08 06:11 | -15.59892 | -69.91045 | 33244 ft | 450 kts | 298° |
| 2026-05-08 06:11 | -15.58358 | -69.93865 | 33703 ft | 447 kts | 298° |
| 2026-05-08 06:11 | -15.56833 | -69.96670 | 34150 ft | 445 kts | 298° |
| 2026-05-08 06:12 | -15.55317 | -69.99460 | 34553 ft | 443 kts | 299° |
| 2026-05-08 06:12 | -15.53808 | -70.02231 | 34978 ft | 440 kts | 299° |
| 2026-05-08 06:12 | -15.52309 | -70.04981 | 35403 ft | 437 kts | 299° |
| 2026-05-08 06:12 | -15.50815 | -70.07718 | 35821 ft | 435 kts | 299° |
| 2026-05-08 06:13 | -15.49329 | -70.10443 | 36051 ft | 433 kts | 299° |
| 2026-05-08 06:13 | -15.46602 | -70.14761 | 36105 ft | 432 kts | 310° |
| 2026-05-08 06:13 | -15.43667 | -70.17600 | 36101 ft | 433 kts | 321° |
| 2026-05-08 06:14 | -15.42076 | -70.18857 | 36091 ft | 433 kts | 321° |
| 2026-05-08 06:14 | -15.37285 | -70.22666 | 36111 ft | 434 kts | 320° |
| 2026-05-08 06:15 | -15.32502 | -70.26489 | 36109 ft | 434 kts | 320° |
| 2026-05-08 06:15 | -15.27712 | -70.30304 | 36099 ft | 434 kts | 320° |
| 2026-05-08 06:16 | -15.22919 | -70.34122 | 36118 ft | 435 kts | 320° |
| 2026-05-08 06:16 | -15.18122 | -70.37937 | 36116 ft | 435 kts | 320° |
| 2026-05-08 06:17 | -15.10926 | -70.43670 | 36096 ft | 435 kts | 321° |
| 2026-05-08 06:17 | -15.06123 | -70.47487 | 36115 ft | 435 kts | 321° |
| 2026-05-08 06:18 | -15.01310 | -70.51295 | 36105 ft | 436 kts | 321° |
| 2026-05-08 06:18 | -14.96494 | -70.55113 | 36106 ft | 436 kts | 321° |
| 2026-05-08 06:19 | -14.91673 | -70.58939 | 36101 ft | 437 kts | 321° |
| 2026-05-08 06:19 | -14.86849 | -70.62765 | 36113 ft | 437 kts | 321° |
| 2026-05-08 06:20 | -14.82021 | -70.66582 | 36121 ft | 438 kts | 321° |
| 2026-05-08 06:20 | -14.77185 | -70.70407 | 36118 ft | 438 kts | 321° |
| 2026-05-08 06:21 | -14.72338 | -70.74244 | 36125 ft | 438 kts | 321° |
| 2026-05-08 06:21 | -14.67498 | -70.78069 | 36139 ft | 438 kts | 321° |
| 2026-05-08 06:22 | -14.62658 | -70.81897 | 36149 ft | 438 kts | 321° |
| 2026-05-08 06:22 | -14.57824 | -70.85721 | 36151 ft | 438 kts | 321° |
| 2026-05-08 06:23 | -14.52973 | -70.89543 | 36169 ft | 438 kts | 321° |
| 2026-05-08 06:23 | -14.48132 | -70.93358 | 36171 ft | 438 kts | 321° |
| 2026-05-08 06:24 | -14.43298 | -70.97177 | 36175 ft | 437 kts | 321° |
| 2026-05-08 06:24 | -14.38468 | -71.00984 | 36177 ft | 437 kts | 321° |
| 2026-05-08 06:25 | -14.33644 | -71.04780 | 36167 ft | 436 kts | 321° |
| 2026-05-08 06:25 | -14.28817 | -71.08585 | 36161 ft | 437 kts | 321° |
| 2026-05-08 06:26 | -14.23991 | -71.12391 | 36160 ft | 437 kts | 321° |
| 2026-05-08 06:26 | -14.19190 | -71.16166 | 36152 ft | 437 kts | 321° |
| 2026-05-08 06:27 | -14.14348 | -71.19970 | 36155 ft | 438 kts | 321° |
| 2026-05-08 06:27 | -14.09504 | -71.23775 | 36151 ft | 438 kts | 321° |
| 2026-05-08 06:28 | -14.04658 | -71.27582 | 36151 ft | 438 kts | 321° |
| 2026-05-08 06:28 | -13.99856 | -71.31348 | 35852 ft | 424 kts | 321° |
| 2026-05-08 06:29 | -13.97540 | -71.33163 | 35611 ft | 414 kts | 321° |
| 2026-05-08 06:29 | -13.95265 | -71.34947 | 35208 ft | 409 kts | 321° |
| 2026-05-08 06:29 | -13.93012 | -71.36713 | 34686 ft | 406 kts | 321° |
| 2026-05-08 06:29 | -13.90765 | -71.38474 | 34154 ft | 406 kts | 321° |
| 2026-05-08 06:30 | -13.88520 | -71.40235 | 33555 ft | 405 kts | 321° |
| 2026-05-08 06:30 | -13.86286 | -71.41990 | 33010 ft | 404 kts | 321° |
| 2026-05-08 06:30 | -13.84058 | -71.43739 | 32474 ft | 401 kts | 321° |
| 2026-05-08 06:30 | -13.81843 | -71.45474 | 31971 ft | 400 kts | 320° |
| 2026-05-08 06:31 | -13.79636 | -71.47203 | 31503 ft | 397 kts | 320° |
| 2026-05-08 06:31 | -13.77445 | -71.48919 | 31036 ft | 395 kts | 320° |
| 2026-05-08 06:31 | -13.75266 | -71.50626 | 30600 ft | 392 kts | 320° |
| 2026-05-08 06:31 | -13.73239 | -71.52470 | 30172 ft | 387 kts | 310° |
| 2026-05-08 06:32 | -13.71630 | -71.54661 | 29675 ft | 382 kts | 299° |
| 2026-05-08 06:32 | -13.70508 | -71.57120 | 29184 ft | 379 kts | 288° |
| 2026-05-08 06:32 | -13.69650 | -71.59683 | 28677 ft | 379 kts | 288° |
| 2026-05-08 06:32 | -13.68778 | -71.62233 | 28192 ft | 376 kts | 290° |
| 2026-05-08 06:33 | -13.67694 | -71.64664 | 27479 ft | 374 kts | 298° |
| 2026-05-08 06:33 | -13.66299 | -71.66908 | 26779 ft | 372 kts | 306° |
| 2026-05-08 06:33 | -13.64657 | -71.68948 | 26081 ft | 369 kts | 313° |
| 2026-05-08 06:33 | -13.62895 | -71.70858 | 25380 ft | 367 kts | 313° |
| 2026-05-08 06:34 | -13.60959 | -71.72532 | 24727 ft | 364 kts | 332° |
| 2026-05-08 06:34 | -13.58567 | -71.73265 | 24107 ft | 359 kts | 355° |
| 2026-05-08 06:34 | -13.56090 | -71.73105 | 23352 ft | 357 kts | 13° |
| 2026-05-08 06:34 | -13.53781 | -71.72212 | 22585 ft | 354 kts | 30° |
| 2026-05-08 06:35 | -13.51847 | -71.70681 | 21835 ft | 350 kts | 49° |
| 2026-05-08 06:35 | -13.50474 | -71.68651 | 21169 ft | 344 kts | 66° |
| 2026-05-08 06:35 | -13.49791 | -71.66321 | 20482 ft | 339 kts | 84° |
| 2026-05-08 06:35 | -13.49839 | -71.63924 | 19808 ft | 335 kts | 102° |
| 2026-05-08 06:36 | -13.50577 | -71.61674 | 19157 ft | 331 kts | 118° |
| 2026-05-08 06:36 | -13.51872 | -71.59735 | 18539 ft | 329 kts | 129° |
| 2026-05-08 06:36 | -13.53362 | -71.57964 | 17835 ft | 327 kts | 133° |
| 2026-05-08 06:36 | -13.54924 | -71.56270 | 17204 ft | 323 kts | 134° |
| 2026-05-08 06:37 | -13.56455 | -71.54666 | 17067 ft | 304 kts | 135° |
| 2026-05-08 06:37 | -13.57903 | -71.53151 | 16949 ft | 292 kts | 135° |
| 2026-05-08 06:37 | -13.59319 | -71.51705 | 16871 ft | 280 kts | 140° |
| 2026-05-08 06:37 | -13.60890 | -71.50622 | 16826 ft | 265 kts | 153° |
| 2026-05-08 06:38 | -13.62569 | -71.49969 | 16782 ft | 252 kts | 166° |
| 2026-05-08 06:38 | -13.64264 | -71.49719 | 16736 ft | 243 kts | 178° |
| 2026-05-08 06:38 | -13.65898 | -71.49855 | 16713 ft | 228 kts | 190° |
| 2026-05-08 06:38 | -13.67368 | -71.50308 | 16697 ft | 216 kts | 201° |
| 2026-05-08 06:39 | -13.68685 | -71.51018 | 16627 ft | 213 kts | 213° |
| 2026-05-08 06:39 | -13.69840 | -71.51974 | 16290 ft | 214 kts | 224° |
| 2026-05-08 06:39 | -13.70796 | -71.53144 | 15791 ft | 213 kts | 234° |
| 2026-05-08 06:39 | -13.71501 | -71.54450 | 15315 ft | 211 kts | 245° |
| 2026-05-08 06:40 | -13.71883 | -71.55889 | 15119 ft | 209 kts | 266° |
| 2026-05-08 06:40 | -13.71599 | -71.57336 | 14716 ft | 207 kts | 296° |
| 2026-05-08 06:40 | -13.70858 | -71.58607 | 14691 ft | 207 kts | 301° |
| 2026-05-08 06:40 | -13.70101 | -71.59871 | 14687 ft | 208 kts | 301° |
| 2026-05-08 06:41 | -13.69342 | -71.61136 | 14638 ft | 208 kts | 301° |
| 2026-05-08 06:41 | -13.68582 | -71.62398 | 14515 ft | 207 kts | 301° |
| 2026-05-08 06:41 | -13.67824 | -71.63656 | 14399 ft | 206 kts | 301° |
| 2026-05-08 06:41 | -13.67068 | -71.64911 | 14283 ft | 206 kts | 301° |
| 2026-05-08 06:42 | -13.66315 | -71.66159 | 14169 ft | 205 kts | 301° |
| 2026-05-08 06:42 | -13.65564 | -71.67403 | 14049 ft | 204 kts | 301° |
| 2026-05-08 06:42 | -13.64818 | -71.68641 | 13928 ft | 203 kts | 301° |
| 2026-05-08 06:42 | -13.64075 | -71.69875 | 13847 ft | 203 kts | 301° |
| 2026-05-08 06:43 | -13.63331 | -71.71109 | 13761 ft | 203 kts | 301° |
| 2026-05-08 06:43 | -13.62588 | -71.72345 | 13680 ft | 203 kts | 301° |
| 2026-05-08 06:43 | -13.61847 | -71.73582 | 13598 ft | 203 kts | 302° |
| 2026-05-08 06:43 | -13.61105 | -71.74819 | 13513 ft | 203 kts | 302° |
| 2026-05-08 06:44 | -13.60366 | -71.76042 | 13397 ft | 195 kts | 302° |
| 2026-05-08 06:44 | -13.59690 | -71.77162 | 13266 ft | 176 kts | 302° |
| 2026-05-08 06:44 | -13.59058 | -71.78208 | 13108 ft | 169 kts | 302° |
| 2026-05-08 06:44 | -13.58447 | -71.79223 | 12917 ft | 165 kts | 302° |
| 2026-05-08 06:45 | -13.57845 | -71.80222 | 12753 ft | 163 kts | 302° |
| 2026-05-08 06:45 | -13.57249 | -71.81213 | 12677 ft | 163 kts | 301° |
| 2026-05-08 06:45 | -13.56753 | -71.82253 | 12638 ft | 164 kts | 290° |
| 2026-05-08 06:45 | -13.56388 | -71.83363 | 12363 ft | 162 kts | 288° |
| 2026-05-08 06:46 | -13.56024 | -71.84456 | 12172 ft | 161 kts | 288° |
| 2026-05-08 06:46 | -13.55620 | -71.85528 | 12004 ft | 161 kts | 294° |
| 2026-05-08 06:46 | -13.55090 | -71.86541 | 11790 ft | 161 kts | 300° |
| 2026-05-08 06:46 | -13.54543 | -71.87539 | 11545 ft | 160 kts | 293° |
| 2026-05-08 06:47 | -13.54198 | -71.88620 | 11292 ft | 159 kts | 283° |
| 2026-05-08 06:47 | -13.54002 | -71.89735 | 11067 ft | 158 kts | 277° |
| 2026-05-08 06:47 | -13.53884 | -71.90858 | 10905 ft | 158 kts | 276° |
| 2026-05-08 06:47 | -13.53767 | -71.91983 | 10771 ft | 158 kts | 276° |
| 2026-05-08 06:48 | -13.53655 | -71.93079 | 10734 ft | 144 kts | 276° |
| 2026-05-08 06:48 | -13.53577 | -71.93863 | 10768 ft | 68 kts | 276° |
| 2026-05-08 06:48 | -13.53554 | -71.94086 | 10779 ft | 15 kts | 276° |
| 2026-05-08 06:48 | -13.53545 | -71.94170 | 10785 ft | 9 kts | 276° |
| 2026-05-08 06:49 | -13.53540 | -71.94220 | 10788 ft | 6 kts | 276° |
| 2026-05-08 06:49 | -13.53535 | -71.94261 | 10790 ft | 6 kts | 276° |
| 2026-05-08 06:49 | -13.53531 | -71.94301 | 10792 ft | 6 kts | 275° |
| 2026-05-08 06:49 | -13.53542 | -71.94337 | 10795 ft | 5 kts | 219° |
| 2026-05-08 06:50 | -13.53592 | -71.94343 | 10796 ft | 10 kts | 183° |
| 2026-05-08 06:50 | -13.53670 | -71.94361 | 10794 ft | 12 kts | 203° |
| 2026-05-08 06:50 | -13.53701 | -71.94376 | 10800 ft | 0 kts | 206° |